PWSweather.com
Personal Weather Stations
Station Observations

San CostanzoIT

Lat: 43.783361, Lon: 13.081353

Elevation: 360

Station Type: PCE FWS 20

http://sancostanzometeo.altervista.org/

Latest ConditionsUpdated 1:22:28 PM GMT+01:01 Monday, May 27, 2019
Currently Today's Max Today's Min Today's Average
Temperature 61.7°F16.5°C 63.7°F17.6°C 59.2°F15.1°C 61.3°F16.3°C
Dew Point 59.7°F15.4°C 59.8°F15.4°C 56.9°F13.8°C 58.6°F14.8°C
Winds 9.6 mph E15.4 kmh E 24.8 mph -39.9 kmh - - 13.9 mph 22.4 kmh
Wind Gusts 12.0 mph19.3 kmh 28.0 mph45.1 kmh - -
Humidity 93% 97% 80% 91%
Pressure 29.72 in1006.4 mb 29.82 in1009.8 mb 29.72 in1006.4 mb -
Precipitation - 0.04 in1.0 mm - -
Hour Temp Dew Point Humidity Winds Wind Gusts Pressure Precip Precip Rate Daily Precip Total
01:22 PM 61.7°F16.5°C 59.7°F15.4°C 93% 9.6 mph E15.4 kmh E 12.0 mph19.3 kmh 29.72 in1006.4 mb 0.00 in0.0 mm 0.00 in0.0 mm 0.04 in1.0 mm
01:12 PM 61.7°F16.5°C 59.7°F15.4°C 93% 11.2 mph E18.0 kmh E 13.6 mph21.9 kmh 29.72 in1006.4 mb 0.00 in0.0 mm 0.00 in0.0 mm 0.04 in1.0 mm
12:52 PM 61.7°F16.5°C 59.4°F15.2°C 92% 12.0 mph E19.3 kmh E 13.6 mph21.9 kmh 29.72 in1006.4 mb 0.00 in0.0 mm 0.00 in0.0 mm 0.04 in1.0 mm
12:42 PM 61.7°F16.5°C 59.4°F15.2°C 92% 10.4 mph E16.7 kmh E 12.0 mph19.3 kmh 29.72 in1006.4 mb 0.00 in0.0 mm 0.00 in0.0 mm 0.04 in1.0 mm
12:32 PM 61.7°F16.5°C 59.4°F15.2°C 92% 13.6 mph E21.9 kmh E 15.2 mph24.5 kmh 29.72 in1006.4 mb 0.00 in0.0 mm 0.00 in0.0 mm 0.04 in1.0 mm
12:22 PM 61.9°F16.6°C 59.5°F15.3°C 92% 12.0 mph E19.3 kmh E 16.0 mph25.7 kmh 29.72 in1006.4 mb 0.00 in0.0 mm 0.00 in0.0 mm 0.04 in1.0 mm
12:12 PM 62.1°F16.7°C 59.7°F15.4°C 92% 13.6 mph E21.9 kmh E 16.0 mph25.7 kmh 29.72 in1006.4 mb 0.00 in0.0 mm 0.00 in0.0 mm 0.04 in1.0 mm
12:02 PM 62.1°F16.7°C 59.4°F15.2°C 91% 10.4 mph SE16.7 kmh SE 11.2 mph18.0 kmh 29.72 in1006.4 mb 0.00 in0.0 mm 0.00 in0.0 mm 0.04 in1.0 mm
11:52 AM 61.9°F16.6°C 59.2°F15.1°C 91% 12.8 mph SE20.6 kmh SE 15.2 mph24.5 kmh 29.72 in1006.4 mb 0.00 in0.0 mm 0.00 in0.0 mm 0.04 in1.0 mm
11:42 AM 61.7°F16.5°C 58.7°F14.8°C 90% 12.8 mph SE20.6 kmh SE 15.2 mph24.5 kmh 29.72 in1006.4 mb 0.00 in0.0 mm 0.00 in0.0 mm 0.04 in1.0 mm
11:32 AM 61.7°F16.5°C 58.7°F14.8°C 90% 16.8 mph E27.0 kmh E 19.2 mph30.9 kmh 29.73 in1006.8 mb 0.00 in0.0 mm 0.00 in0.0 mm 0.04 in1.0 mm
11:22 AM 61.9°F16.6°C 58.6°F14.8°C 89% 15.2 mph SE24.5 kmh SE 19.2 mph30.9 kmh 29.73 in1006.8 mb 0.00 in0.0 mm 0.00 in0.0 mm 0.04 in1.0 mm
11:12 AM 61.9°F16.6°C 58.0°F14.4°C 87% 16.8 mph E27.0 kmh E 18.4 mph29.6 kmh 29.73 in1006.8 mb 0.00 in0.0 mm 0.00 in0.0 mm 0.04 in1.0 mm
10:52 AM 62.4°F16.9°C 57.9°F14.4°C 85% 20.8 mph SE33.5 kmh SE 23.2 mph37.3 kmh 29.73 in1006.8 mb 0.00 in0.0 mm 0.00 in0.0 mm 0.04 in1.0 mm
10:42 AM 62.6°F17.0°C 57.7°F14.3°C 84% 20.0 mph SE32.2 kmh SE 25.6 mph41.2 kmh 29.73 in1006.8 mb 0.00 in0.0 mm 0.00 in0.0 mm 0.04 in1.0 mm
10:32 AM 62.8°F17.1°C 57.9°F14.4°C 84% 19.2 mph E30.9 kmh E 22.4 mph36.0 kmh 29.73 in1006.8 mb 0.00 in0.0 mm 0.00 in0.0 mm 0.04 in1.0 mm
10:22 AM 63.1°F17.3°C 57.9°F14.4°C 83% 19.2 mph SE30.9 kmh SE 22.4 mph36.0 kmh 29.73 in1006.8 mb 0.00 in0.0 mm 0.00 in0.0 mm 0.04 in1.0 mm
10:12 AM 63.1°F17.3°C 57.9°F14.4°C 83% 20.0 mph E32.2 kmh E 25.6 mph41.2 kmh 29.73 in1006.8 mb 0.00 in0.0 mm 0.00 in0.0 mm 0.04 in1.0 mm
10:02 AM 63.3°F17.4°C 58.4°F14.7°C 84% 21.6 mph SE34.8 kmh SE 24.8 mph39.9 kmh 29.74 in1007.1 mb 0.00 in0.0 mm 0.00 in0.0 mm 0.04 in1.0 mm
09:52 AM 63.0°F17.2°C 57.7°F14.3°C 83% 18.4 mph E29.6 kmh E 20.8 mph33.5 kmh 29.74 in1007.1 mb 0.00 in0.0 mm 0.00 in0.0 mm 0.04 in1.0 mm
09:42 AM 63.7°F17.6°C 57.4°F14.1°C 80% 17.6 mph E28.3 kmh E 20.0 mph32.2 kmh 29.74 in1007.1 mb 0.00 in0.0 mm 0.00 in0.0 mm 0.04 in1.0 mm
09:32 AM 63.7°F17.6°C 58.1°F14.5°C 82% 22.4 mph SE36.0 kmh SE 27.2 mph43.8 kmh 29.73 in1006.8 mb 0.00 in0.0 mm 0.00 in0.0 mm 0.04 in1.0 mm
09:22 AM 63.3°F17.4°C 59.7°F15.4°C 88% 21.6 mph SE34.8 kmh SE 28.0 mph45.1 kmh 29.73 in1006.8 mb 0.00 in0.0 mm 0.00 in0.0 mm 0.04 in1.0 mm
09:12 AM 62.6°F17.0°C 59.0°F15.0°C 88% 14.4 mph E23.2 kmh E 16.8 mph27.0 kmh 29.74 in1007.1 mb 0.00 in0.0 mm 0.00 in0.0 mm 0.04 in1.0 mm
08:52 AM 62.4°F16.9°C 59.1°F15.1°C 89% 16.0 mph SE25.7 kmh SE 20.0 mph32.2 kmh 29.75 in1007.5 mb 0.00 in0.0 mm 0.00 in0.0 mm 0.04 in1.0 mm
08:42 AM 62.2°F16.8°C 59.0°F15.0°C 89% 14.4 mph SE23.2 kmh SE 19.2 mph30.9 kmh 29.74 in1007.1 mb 0.00 in0.0 mm 0.00 in0.0 mm 0.04 in1.0 mm
08:32 AM 61.9°F16.6°C 58.6°F14.8°C 89% 12.8 mph SE20.6 kmh SE 15.2 mph24.5 kmh 29.75 in1007.5 mb 0.00 in0.0 mm 0.00 in0.0 mm 0.04 in1.0 mm
08:22 AM 61.7°F16.5°C 58.4°F14.7°C 89% 12.0 mph SE19.3 kmh SE 13.6 mph21.9 kmh 29.74 in1007.1 mb 0.00 in0.0 mm 0.00 in0.0 mm 0.04 in1.0 mm
08:12 AM 61.7°F16.5°C 58.4°F14.7°C 89% 16.0 mph E25.7 kmh E 20.0 mph32.2 kmh 29.75 in1007.5 mb 0.00 in0.0 mm 0.00 in0.0 mm 0.04 in1.0 mm
07:52 AM 61.5°F16.4°C 57.9°F14.4°C 88% 12.8 mph SE20.6 kmh SE 14.4 mph23.2 kmh 29.76 in1007.8 mb 0.00 in0.0 mm 0.00 in0.0 mm 0.04 in1.0 mm
07:42 AM 61.5°F16.4°C 57.9°F14.4°C 88% 14.4 mph E23.2 kmh E 16.8 mph27.0 kmh 29.76 in1007.8 mb 0.00 in0.0 mm 0.00 in0.0 mm 0.04 in1.0 mm
07:32 AM 61.3°F16.3°C 57.8°F14.3°C 88% 12.0 mph SE19.3 kmh SE 13.6 mph21.9 kmh 29.76 in1007.8 mb 0.00 in0.0 mm 0.00 in0.0 mm 0.04 in1.0 mm
07:22 AM 61.2°F16.2°C 57.6°F14.2°C 88% 12.0 mph SE19.3 kmh SE 13.6 mph21.9 kmh 29.76 in1007.8 mb 0.00 in0.0 mm 0.00 in0.0 mm 0.04 in1.0 mm
07:12 AM 61.2°F16.2°C 57.6°F14.2°C 88% 9.6 mph E15.4 kmh E 11.2 mph18.0 kmh 29.76 in1007.8 mb 0.00 in0.0 mm 0.00 in0.0 mm 0.04 in1.0 mm
06:52 AM 60.8°F16.0°C 56.9°F13.8°C 87% 8.8 mph E14.2 kmh E 10.4 mph16.7 kmh 29.77 in1008.1 mb 0.00 in0.0 mm 0.00 in0.0 mm 0.04 in1.0 mm
06:42 AM 60.6°F15.9°C 57.0°F13.9°C 88% 6.4 mph E10.3 kmh E 8.0 mph12.9 kmh 29.76 in1007.8 mb 0.00 in0.0 mm 0.00 in0.0 mm 0.04 in1.0 mm
06:32 AM 60.6°F15.9°C 57.0°F13.9°C 88% 8.0 mph E12.9 kmh E 9.6 mph15.4 kmh 29.76 in1007.8 mb 0.00 in0.0 mm 0.00 in0.0 mm 0.04 in1.0 mm
06:22 AM 60.6°F15.9°C 57.4°F14.1°C 89% 8.0 mph E12.9 kmh E 8.8 mph14.2 kmh 29.76 in1007.8 mb 0.00 in0.0 mm 0.00 in0.0 mm 0.04 in1.0 mm
06:12 AM 60.6°F15.9°C 57.7°F14.3°C 90% 9.6 mph SE15.4 kmh SE 12.0 mph19.3 kmh 29.76 in1007.8 mb 0.00 in0.0 mm 0.00 in0.0 mm 0.04 in1.0 mm
05:51 AM 60.6°F15.9°C 58.0°F14.4°C 91% 9.6 mph SE15.4 kmh SE 11.2 mph18.0 kmh 29.76 in1007.8 mb 0.00 in0.0 mm 0.00 in0.0 mm 0.04 in1.0 mm
05:42 AM 60.4°F15.8°C 57.8°F14.3°C 91% 11.2 mph SE18.0 kmh SE 12.8 mph20.6 kmh 29.76 in1007.8 mb 0.00 in0.0 mm 0.00 in0.0 mm 0.04 in1.0 mm
05:32 AM 60.4°F15.8°C 57.8°F14.3°C 91% 8.8 mph SE14.2 kmh SE 10.4 mph16.7 kmh 29.76 in1007.8 mb 0.00 in0.0 mm 0.00 in0.0 mm 0.04 in1.0 mm
05:21 AM 60.4°F15.8°C 58.1°F14.5°C 92% 10.4 mph SE16.7 kmh SE 12.0 mph19.3 kmh 29.75 in1007.5 mb 0.00 in0.0 mm 0.00 in0.0 mm 0.04 in1.0 mm
05:12 AM 60.4°F15.8°C 58.4°F14.7°C 93% 10.4 mph SE16.7 kmh SE 12.8 mph20.6 kmh 29.76 in1007.8 mb 0.00 in0.0 mm 0.00 in0.0 mm 0.04 in1.0 mm
04:51 AM 60.3°F15.7°C 58.5°F14.7°C 94% 12.0 mph E19.3 kmh E 15.2 mph24.5 kmh 29.76 in1007.8 mb 0.00 in0.0 mm 0.00 in0.0 mm 0.04 in1.0 mm
04:41 AM 60.4°F15.8°C 58.7°F14.8°C 94% 11.2 mph SE18.0 kmh SE 12.0 mph19.3 kmh 29.76 in1007.8 mb 0.00 in0.0 mm 0.00 in0.0 mm 0.04 in1.0 mm
04:31 AM 60.4°F15.8°C 58.7°F14.8°C 94% 11.2 mph SE18.0 kmh SE 12.8 mph20.6 kmh 29.76 in1007.8 mb 0.00 in0.0 mm 0.00 in0.0 mm 0.04 in1.0 mm
04:21 AM 60.4°F15.8°C 58.7°F14.8°C 94% 11.2 mph SE18.0 kmh SE 12.8 mph20.6 kmh 29.76 in1007.8 mb 0.00 in0.0 mm 0.00 in0.0 mm 0.04 in1.0 mm
04:12 AM 60.4°F15.8°C 59.0°F15.0°C 95% 10.4 mph E16.7 kmh E 12.0 mph19.3 kmh 29.76 in1007.8 mb 0.00 in0.0 mm 0.00 in0.0 mm 0.04 in1.0 mm
04:01 AM 60.4°F15.8°C 59.0°F15.0°C 95% 11.2 mph SE18.0 kmh SE 12.8 mph20.6 kmh 29.77 in1008.1 mb 0.00 in0.0 mm 0.00 in0.0 mm 0.04 in1.0 mm
03:51 AM 60.3°F15.7°C 58.8°F14.9°C 95% 9.6 mph SE15.4 kmh SE 10.4 mph16.7 kmh 29.76 in1007.8 mb 0.00 in0.0 mm 0.00 in0.0 mm 0.04 in1.0 mm
03:41 AM 60.3°F15.7°C 58.8°F14.9°C 95% 12.8 mph E20.6 kmh E 15.2 mph24.5 kmh 29.76 in1007.8 mb 0.00 in0.0 mm 0.00 in0.0 mm 0.04 in1.0 mm
03:31 AM 60.4°F15.8°C 59.0°F15.0°C 95% 14.4 mph SE23.2 kmh SE 16.0 mph25.7 kmh 29.77 in1008.1 mb 0.00 in0.0 mm 0.00 in0.0 mm 0.04 in1.0 mm
03:21 AM 60.4°F15.8°C 59.0°F15.0°C 95% 12.8 mph SE20.6 kmh SE 15.2 mph24.5 kmh 29.77 in1008.1 mb 0.00 in0.0 mm 0.00 in0.0 mm 0.04 in1.0 mm
03:12 AM 60.4°F15.8°C 59.3°F15.2°C 96% 12.8 mph SE20.6 kmh SE 14.4 mph23.2 kmh 29.77 in1008.1 mb 0.00 in0.0 mm 0.00 in0.0 mm 0.04 in1.0 mm
02:51 AM 60.6°F15.9°C 59.5°F15.3°C 96% 15.2 mph SE24.5 kmh SE 17.6 mph28.3 kmh 29.78 in1008.5 mb 0.00 in0.0 mm 0.00 in0.0 mm 0.04 in1.0 mm
02:42 AM 60.6°F15.9°C 59.5°F15.3°C 96% 12.8 mph SE20.6 kmh SE 15.2 mph24.5 kmh 29.78 in1008.5 mb 0.00 in0.0 mm 0.00 in0.0 mm 0.04 in1.0 mm
02:31 AM 60.6°F15.9°C 59.5°F15.3°C 96% 11.2 mph SE18.0 kmh SE 13.6 mph21.9 kmh 29.78 in1008.5 mb 0.01 in0.3 mm 0.00 in0.0 mm 0.04 in1.0 mm
02:21 AM 60.6°F15.9°C 59.5°F15.3°C 96% 14.4 mph E23.2 kmh E 17.6 mph28.3 kmh 29.78 in1008.5 mb 0.01 in0.3 mm 0.00 in0.0 mm 0.04 in1.0 mm
02:12 AM 60.6°F15.9°C 59.5°F15.3°C 96% 14.4 mph E23.2 kmh E 16.0 mph25.7 kmh 29.78 in1008.5 mb 0.01 in0.3 mm 0.00 in0.0 mm 0.04 in1.0 mm
01:51 AM 60.3°F15.7°C 59.1°F15.1°C 96% 15.2 mph SE24.5 kmh SE 16.8 mph27.0 kmh 29.79 in1008.8 mb 0.01 in0.3 mm 0.00 in0.0 mm 0.04 in1.0 mm
01:41 AM 60.1°F15.6°C 58.9°F14.9°C 96% 24.8 mph E39.9 kmh E 26.4 mph42.5 kmh 29.78 in1008.5 mb 0.01 in0.3 mm 0.07 in1.8 mm 0.04 in1.0 mm
01:31 AM 60.3°F15.7°C 59.1°F15.1°C 96% 18.4 mph SE29.6 kmh SE 24.8 mph39.9 kmh 29.79 in1008.8 mb 0.00 in0.0 mm 0.00 in0.0 mm 0.02 in0.5 mm
01:22 AM 60.6°F15.9°C 59.5°F15.3°C 96% 13.6 mph E21.9 kmh E 15.2 mph24.5 kmh 29.79 in1008.8 mb 0.00 in0.0 mm 0.00 in0.0 mm 0.02 in0.5 mm
01:11 AM 60.8°F16.0°C 59.7°F15.4°C 96% 19.2 mph E30.9 kmh E 22.4 mph36.0 kmh 29.79 in1008.8 mb 0.00 in0.0 mm 0.00 in0.0 mm 0.02 in0.5 mm
12:51 AM 60.6°F15.9°C 59.5°F15.3°C 96% 18.4 mph E29.6 kmh E 24.8 mph39.9 kmh 29.80 in1009.1 mb 0.01 in0.3 mm 0.00 in0.0 mm 0.02 in0.5 mm
12:41 AM 60.6°F15.9°C 59.8°F15.4°C 97% 19.2 mph E30.9 kmh E 25.6 mph41.2 kmh 29.80 in1009.1 mb 0.01 in0.3 mm 0.00 in0.0 mm 0.02 in0.5 mm
12:32 AM 60.6°F15.9°C 59.8°F15.4°C 97% 16.0 mph E25.7 kmh E 20.0 mph32.2 kmh 29.81 in1009.5 mb 0.01 in0.3 mm 0.00 in0.0 mm 0.02 in0.5 mm
12:21 AM 60.3°F15.7°C 59.1°F15.1°C 96% 17.6 mph SE28.3 kmh SE 20.8 mph33.5 kmh 29.81 in1009.5 mb 0.01 in0.3 mm 0.00 in0.0 mm 0.02 in0.5 mm
12:11 AM 60.1°F15.6°C 58.9°F14.9°C 96% 15.2 mph E24.5 kmh E 18.4 mph29.6 kmh 29.82 in1009.8 mb 0.02 in0.5 mm 0.07 in1.8 mm 0.02 in0.5 mm
12:01 AM 59.2°F15.1°C 58.0°F14.4°C 96% 10.4 mph E16.7 kmh E 12.8 mph20.6 kmh 29.82 in1009.8 mb 0.01 in0.3 mm 0.71 in18.0 mm 0.01 in0.3 mm